createdAt,value
2018-09-20T00:00:13.540Z,18.72
2018-09-20T00:00:53.916Z,18.71
2018-09-20T00:01:34.343Z,18.64
2018-09-20T00:02:14.716Z,18.65
2018-09-20T00:02:55.145Z,18.66
2018-09-20T00:03:35.861Z,18.6
2018-09-20T00:04:16.079Z,18.57
2018-09-20T00:04:56.494Z,18.56
2018-09-20T00:05:36.870Z,18.46
2018-09-20T00:06:17.279Z,18.46
2018-09-20T00:06:57.701Z,18.42
2018-09-20T00:07:38.158Z,18.38
2018-09-20T00:08:18.524Z,18.39
2018-09-20T00:08:58.987Z,18.34
2018-09-20T00:09:39.341Z,18.35
2018-09-20T00:10:19.764Z,18.29
2018-09-20T00:11:00.222Z,18.32
2018-09-20T00:11:40.558Z,18.34
2018-09-20T00:12:20.979Z,18.29
2018-09-20T00:13:01.367Z,18.39
2018-09-20T00:13:41.761Z,18.34
2018-09-20T00:14:22.164Z,18.29
2018-09-20T00:15:02.614Z,18.29
2018-09-20T00:15:42.957Z,18.25
2018-09-20T00:16:23.369Z,18.31
2018-09-20T00:17:03.752Z,18.21
2018-09-20T00:19:02.868Z,18.25
2018-09-20T00:19:42.557Z,18.32
2018-09-20T00:20:22.975Z,18.31
2018-09-20T00:21:03.374Z,18.32
2018-09-20T00:21:43.779Z,18.23
2018-09-20T00:22:24.209Z,18.25
2018-09-20T00:23:04.591Z,18.31
2018-09-20T00:23:45.042Z,18.29
2018-09-20T00:24:25.471Z,18.26
2018-09-20T00:25:05.856Z,18.31
2018-09-20T00:25:46.278Z,18.32
2018-09-20T00:26:26.710Z,18.26
2018-09-20T00:27:07.067Z,18.32
2018-09-20T00:27:47.459Z,18.31
2018-09-20T00:28:27.980Z,18.21
2018-09-20T00:29:08.267Z,18.28
2018-09-20T00:29:48.711Z,18.19
2018-09-20T00:30:29.200Z,18.17
2018-09-20T00:31:09.488Z,18.26
2018-09-20T00:31:49.892Z,18.17
2018-09-20T00:32:30.268Z,18.21
2018-09-20T00:33:10.647Z,18.13
2018-09-20T00:33:51.085Z,18.1
2018-09-20T00:34:31.569Z,18.05
2018-09-20T00:35:11.889Z,18.07
2018-09-20T00:35:52.274Z,18.11
2018-09-20T00:36:32.708Z,18.02
2018-09-20T00:37:13.108Z,18.13
2018-09-20T00:37:53.576Z,18.07
2018-09-20T00:38:33.912Z,18.1
2018-09-20T00:39:14.308Z,18.05
2018-09-20T00:39:54.711Z,18.09
2018-09-20T00:40:35.128Z,18.04
2018-09-20T00:41:15.541Z,18.09
2018-09-20T00:41:56.002Z,18.05
2018-09-20T00:42:36.392Z,18.04
2018-09-20T00:43:16.796Z,17.98
2018-09-20T00:43:57.224Z,17.92
2018-09-20T00:44:37.652Z,17.94
2018-09-20T00:45:18.057Z,17.94
2018-09-20T00:45:58.404Z,17.96
2018-09-20T00:46:38.803Z,17.94
2018-09-20T00:47:19.233Z,17.92
2018-09-20T00:47:59.633Z,17.99
2018-09-20T00:48:40.048Z,18.01
2018-09-20T00:49:20.449Z,18.02
2018-09-20T00:50:00.859Z,18.02
2018-09-20T00:50:41.331Z,18.01
2018-09-20T00:51:21.695Z,17.98
2018-09-20T00:52:02.097Z,17.99
2018-09-20T00:52:42.528Z,18.04
2018-09-20T00:53:22.907Z,18.07
2018-09-20T00:54:03.301Z,18.09
2018-09-20T00:54:43.760Z,18.16
2018-09-20T00:55:24.101Z,18.21
2018-09-20T00:56:04.506Z,18.16
2018-09-20T00:57:58.010Z,18.13
2018-09-20T00:58:38.531Z,18.2
2018-09-20T00:59:18.934Z,18.13
2018-09-20T00:59:59.275Z,18.16
2018-09-20T01:00:39.660Z,18.19
2018-09-20T01:01:20.143Z,18.16
2018-09-20T01:02:00.528Z,18.17
2018-09-20T01:02:40.925Z,18.19
2018-09-20T01:03:21.377Z,18.17
2018-09-20T01:04:01.822Z,18.2
2018-09-20T01:04:42.251Z,18.17
2018-09-20T01:05:22.651Z,18.11
2018-09-20T01:06:03.113Z,18.21
2018-09-20T01:06:43.444Z,18.17
2018-09-20T01:07:23.869Z,18.2
2018-09-20T01:08:04.259Z,18.07
2018-09-20T01:08:44.670Z,18.1
2018-09-20T01:09:25.088Z,18.11
2018-09-20T01:10:05.488Z,18.13
2018-09-20T01:10:45.893Z,18.17
2018-09-20T01:11:26.304Z,18.09
2018-09-20T01:12:06.737Z,18.14
2018-09-20T01:12:47.150Z,18.09
2018-09-20T01:13:27.527Z,18.14
2018-09-20T01:14:07.948Z,18.09
2018-09-20T01:14:48.368Z,18.13
2018-09-20T01:15:28.771Z,18.05
2018-09-20T01:16:09.181Z,18.13
2018-09-20T01:16:49.586Z,18.1
2018-09-20T01:17:29.992Z,18.09
2018-09-20T01:18:10.412Z,18.09
2018-09-20T01:18:50.830Z,18.13
2018-09-20T01:19:31.257Z,18.14
2018-09-20T01:20:11.629Z,18.05
2018-09-20T01:20:52.027Z,18.1
2018-09-20T01:21:32.402Z,18.11
2018-09-20T01:22:12.801Z,18.1
2018-09-20T01:22:53.197Z,18.02
2018-09-20T01:23:33.597Z,17.91
2018-09-20T01:24:13.981Z,17.89
2018-09-20T01:24:54.423Z,17.91
2018-09-20T01:25:34.813Z,17.86
2018-09-20T01:26:15.226Z,17.81
2018-09-20T01:26:55.649Z,17.81
2018-09-20T01:27:36.062Z,17.77
2018-09-20T01:28:16.450Z,17.79
2018-09-20T01:28:56.862Z,17.74
2018-09-20T01:29:37.271Z,17.63
2018-09-20T01:30:17.681Z,17.55
2018-09-20T01:33:09.242Z,17.51
2018-09-20T01:33:49.450Z,17.51
2018-09-20T01:34:29.843Z,17.51
2018-09-20T01:35:10.282Z,17.51
2018-09-20T01:35:50.697Z,17.53
2018-09-20T01:36:31.099Z,17.53
2018-09-20T01:37:11.498Z,17.55
2018-09-20T01:37:51.908Z,17.53
2018-09-20T01:38:32.348Z,17.55
2018-09-20T01:39:12.768Z,17.54
2018-09-20T01:39:53.207Z,17.54
2018-09-20T01:40:33.627Z,17.55
2018-09-20T01:41:14.036Z,17.54
2018-09-20T01:41:54.431Z,17.53
2018-09-20T01:42:34.816Z,17.55
2018-09-20T01:43:15.233Z,17.53
2018-09-20T01:43:55.676Z,17.51
2018-09-20T01:45:48.205Z,17.51
2018-09-20T01:46:29.922Z,17.46
2018-09-20T01:47:10.341Z,17.45
2018-09-20T01:49:08.051Z,17.38
2018-09-20T01:49:48.184Z,17.38
2018-09-20T01:50:28.583Z,17.39
2018-09-20T01:51:08.990Z,17.4
2018-09-20T01:51:49.388Z,17.35
2018-09-20T01:52:29.784Z,17.39
2018-09-20T01:54:10.953Z,17.33
2018-09-20T01:54:50.920Z,17.39
2018-09-20T01:55:31.331Z,17.38
2018-09-20T01:56:11.718Z,17.4
2018-09-20T01:56:52.199Z,17.39
2018-09-20T01:57:32.525Z,17.39
2018-09-20T01:58:13.011Z,17.39
2018-09-20T01:58:53.341Z,17.36
2018-09-20T01:59:33.725Z,17.36
2018-09-20T02:00:14.141Z,17.4
2018-09-20T02:00:54.549Z,17.4
2018-09-20T02:01:34.935Z,17.35
2018-09-20T02:02:15.342Z,17.43
2018-09-20T02:02:55.713Z,17.4
2018-09-20T02:03:36.130Z,17.38
2018-09-20T02:04:16.527Z,17.39
2018-09-20T02:04:56.966Z,17.46
2018-09-20T02:05:37.358Z,17.51
2018-09-20T02:07:24.727Z,17.47
2018-09-20T02:08:05.049Z,17.43
2018-09-20T02:08:45.463Z,17.55
2018-09-20T02:09:25.882Z,17.49
2018-09-20T02:10:06.255Z,17.54
2018-09-20T02:10:46.665Z,17.55
2018-09-20T02:11:27.103Z,17.53
2018-09-20T02:12:07.496Z,17.54
2018-09-20T02:12:47.901Z,17.57
2018-09-20T02:13:28.306Z,17.62
2018-09-20T02:14:08.731Z,17.63
2018-09-20T02:14:49.146Z,17.63
2018-09-20T02:15:29.530Z,17.63
2018-09-20T02:16:09.977Z,17.68
2018-09-20T02:16:50.321Z,17.66
2018-09-20T02:17:30.730Z,17.68
2018-09-20T02:18:11.148Z,17.65
2018-09-20T02:18:59.077Z,17.63
2018-09-20T02:19:39.466Z,17.63
2018-09-20T02:20:19.891Z,17.73
2018-09-20T02:21:00.282Z,17.76
2018-09-20T02:21:40.691Z,17.86
2018-09-20T02:22:21.080Z,17.83
2018-09-20T02:23:01.455Z,17.81
2018-09-20T02:23:41.881Z,17.83
2018-09-20T02:24:22.276Z,17.89
2018-09-20T02:25:02.743Z,17.86
2018-09-20T02:25:43.129Z,17.87
2018-09-20T02:26:23.540Z,17.94
2018-09-20T02:27:04.007Z,17.99
2018-09-20T02:27:44.434Z,17.98
2018-09-20T02:28:24.772Z,17.94
2018-09-20T02:29:05.171Z,17.98
2018-09-20T02:29:45.581Z,17.92
2018-09-20T02:30:25.964Z,17.95
2018-09-20T02:31:06.369Z,17.99
2018-09-20T02:31:46.784Z,17.95
2018-09-20T02:32:27.216Z,17.95
2018-09-20T02:33:07.637Z,17.98
2018-09-20T02:33:48.077Z,17.94
2018-09-20T02:34:28.439Z,17.91
2018-09-20T02:35:08.871Z,17.94
2018-09-20T02:35:49.278Z,17.86
2018-09-20T02:36:29.668Z,17.83
2018-09-20T02:37:10.088Z,17.89
2018-09-20T02:37:50.486Z,17.86
2018-09-20T02:38:30.915Z,17.98
2018-09-20T02:39:11.267Z,17.86
2018-09-20T02:39:51.705Z,17.87
2018-09-20T02:40:32.095Z,17.95
2018-09-20T02:41:12.524Z,17.94
2018-09-20T02:41:52.925Z,17.86
2018-09-20T02:42:33.309Z,17.94
2018-09-20T02:43:13.708Z,17.89
2018-09-20T02:43:54.159Z,17.81
2018-09-20T02:44:34.554Z,17.94
2018-09-20T02:45:14.959Z,17.96
2018-09-20T02:45:55.401Z,17.95
2018-09-20T02:46:35.775Z,18.04
2018-09-20T02:47:16.190Z,18.04
2018-09-20T02:48:56.661Z,17.95
2018-09-20T02:49:35.828Z,17.96
2018-09-20T02:50:16.260Z,17.94
2018-09-20T02:50:56.695Z,17.84
2018-09-20T02:51:37.115Z,17.95
2018-09-20T02:52:17.529Z,17.95
2018-09-20T02:52:57.941Z,17.92
2018-09-20T02:53:38.387Z,17.83
2018-09-20T02:54:18.714Z,17.91
2018-09-20T02:54:59.143Z,17.89
2018-09-20T02:55:39.546Z,17.91
2018-09-20T02:56:19.970Z,17.87
2018-09-20T02:57:00.365Z,17.83
2018-09-20T02:57:40.781Z,17.95
2018-09-20T02:58:21.173Z,17.92
2018-09-20T02:59:01.620Z,17.86
2018-09-20T02:59:41.996Z,17.84
2018-09-20T03:00:22.390Z,17.91
2018-09-20T03:01:02.909Z,17.86
2018-09-20T03:01:43.284Z,17.83
2018-09-20T03:02:23.688Z,17.8
2018-09-20T03:05:28.873Z,17.74
2018-09-20T03:06:07.752Z,17.73
2018-09-20T03:06:48.151Z,17.77
2018-09-20T03:07:28.561Z,17.79
2018-09-20T03:08:08.956Z,17.76
2018-09-20T03:08:49.354Z,17.76
2018-09-20T03:09:29.808Z,17.6
2018-09-20T03:10:10.190Z,17.66
2018-09-20T03:10:50.585Z,17.62
2018-09-20T03:11:31.021Z,17.66
2018-09-20T03:12:11.385Z,17.53
2018-09-20T03:12:51.789Z,17.58
2018-09-20T03:13:32.223Z,17.55
2018-09-20T03:14:12.639Z,17.46
2018-09-20T03:14:53.029Z,17.45
2018-09-20T03:15:33.462Z,17.46
2018-09-20T03:16:13.927Z,17.45
2018-09-20T03:16:54.330Z,17.4
2018-09-20T03:17:34.786Z,17.35
2018-09-20T03:18:15.160Z,17.36
2018-09-20T03:20:56.717Z,17.33
2018-09-20T03:21:36.766Z,17.28
2018-09-20T03:22:17.220Z,17.22
2018-09-20T03:22:57.568Z,17.25
2018-09-20T03:23:37.968Z,17.15
2018-09-20T03:24:18.411Z,17.22
2018-09-20T03:24:58.796Z,17.14
2018-09-20T03:25:39.160Z,17.17
2018-09-20T03:26:19.579Z,17.1
2018-09-20T03:30:39.920Z,17.17
2018-09-20T03:31:20.231Z,17.14
2018-09-20T03:32:00.652Z,17.22
2018-09-20T03:32:41.019Z,17.12
2018-09-20T03:33:21.403Z,17.2
2018-09-20T03:34:01.831Z,17.27
2018-09-20T03:34:42.204Z,17.25
2018-09-20T03:35:22.606Z,17.27
2018-09-20T03:36:03.077Z,17.25
2018-09-20T03:36:43.457Z,17.33
2018-09-20T03:37:23.891Z,17.28
2018-09-20T03:38:04.260Z,17.38
2018-09-20T03:38:44.750Z,17.33
2018-09-20T03:39:25.072Z,17.32
2018-09-20T03:40:05.498Z,17.38
2018-09-20T03:40:45.947Z,17.35
2018-09-20T03:41:26.347Z,17.45
2018-09-20T03:42:06.734Z,17.38
2018-09-20T03:42:47.149Z,17.35
2018-09-20T03:43:27.494Z,17.32
2018-09-20T03:44:07.892Z,17.35
2018-09-20T03:44:48.358Z,17.35
2018-09-20T03:45:28.717Z,17.33
2018-09-20T03:46:09.168Z,17.33
2018-09-20T03:46:49.516Z,17.33
2018-09-20T03:47:29.969Z,17.3
2018-09-20T03:48:10.365Z,17.36
2018-09-20T03:50:09.238Z,17.3
2018-09-20T03:50:49.994Z,17.22
2018-09-20T03:51:30.406Z,17.18
2018-09-20T03:52:10.816Z,17.24
2018-09-20T03:52:51.231Z,17.3
2018-09-20T03:53:31.664Z,17.3
2018-09-20T03:54:12.053Z,17.35
2018-09-20T03:54:52.485Z,17.35
2018-09-20T03:55:32.850Z,17.27
2018-09-20T03:56:13.296Z,17.24
2018-09-20T03:56:53.732Z,17.27
2018-09-20T03:57:34.149Z,17.27
2018-09-20T03:58:14.532Z,17.25
2018-09-20T03:58:54.905Z,17.28
2018-09-20T03:59:35.365Z,17.18
2018-09-20T04:00:15.717Z,17.2
2018-09-20T04:00:56.109Z,17.17
2018-09-20T04:01:36.552Z,17.2
2018-09-20T04:02:16.938Z,17.15
2018-09-20T04:02:57.371Z,17.09
2018-09-20T04:03:38.047Z,17.09
2018-09-20T04:04:18.453Z,17.17
2018-09-20T04:04:58.840Z,17.18
2018-09-20T04:05:39.300Z,17.15
2018-09-20T04:06:19.661Z,17.1
2018-09-20T04:07:00.121Z,17.12
2018-09-20T04:07:40.509Z,17.1
2018-09-20T04:08:20.908Z,17.09
2018-09-20T04:09:01.499Z,16.99
2018-09-20T04:09:42.018Z,16.95
2018-09-20T04:10:22.341Z,17.02
2018-09-20T04:11:02.713Z,16.92
2018-09-20T04:11:43.116Z,16.9
2018-09-20T04:12:23.554Z,16.96
2018-09-20T04:13:03.966Z,16.88
2018-09-20T04:13:44.345Z,16.81
2018-09-20T04:14:24.760Z,16.75
2018-09-20T04:15:05.173Z,16.8
2018-09-20T04:15:48.765Z,16.81
2018-09-20T04:16:29.219Z,16.85
2018-09-20T04:17:09.556Z,16.91
2018-09-20T04:17:49.963Z,16.91
2018-09-20T04:18:30.378Z,16.91
2018-09-20T04:19:10.776Z,16.87
2018-09-20T04:19:51.239Z,16.84
2018-09-20T04:20:31.617Z,16.9
2018-09-20T04:21:12.000Z,16.87
2018-09-20T04:21:52.480Z,16.81
2018-09-20T04:22:32.857Z,16.8
2018-09-20T04:23:13.265Z,16.87
2018-09-20T04:24:05.773Z,16.9
2018-09-20T04:25:18.491Z,16.84
2018-09-20T04:27:21.542Z,16.92
2018-09-20T05:08:10.986Z,16.17
2018-09-20T05:09:03.203Z,16.17
2018-09-20T05:09:55.495Z,16.16
2018-09-20T05:10:48.329Z,16.25
2018-09-20T05:11:41.477Z,16.23
2018-09-20T05:12:33.470Z,16.16
2018-09-20T05:13:25.699Z,16.18
2018-09-20T05:14:20.370Z,16.26
2018-09-20T05:15:13.376Z,16.4
2018-09-20T05:16:07.957Z,16.36
2018-09-20T05:17:03.021Z,16.4
2018-09-20T05:17:56.346Z,16.36
2018-09-20T05:18:51.183Z,16.42
2018-09-20T05:19:44.892Z,16.42
2018-09-20T05:20:38.976Z,16.52
2018-09-20T05:21:34.406Z,16.59
2018-09-20T05:22:27.831Z,16.6
2018-09-20T05:23:23.153Z,16.72
2018-09-20T05:24:15.304Z,16.81
2018-09-20T05:25:07.554Z,16.77
2018-09-20T05:26:00.909Z,16.85
2018-09-20T05:26:53.368Z,16.82
2018-09-20T05:27:47.407Z,16.81
2018-09-20T05:28:40.497Z,16.84
2018-09-20T05:29:32.767Z,16.87
2018-09-20T05:30:25.780Z,16.92
2018-09-20T05:31:25.289Z,16.85
2018-09-20T05:32:18.269Z,16.91
2018-09-20T05:33:12.292Z,16.9
2018-09-20T05:34:05.736Z,16.81
2018-09-20T05:34:58.597Z,16.88
2018-09-20T05:35:50.939Z,16.92
2018-09-20T05:36:44.980Z,17.1
2018-09-20T05:37:25.880Z,17.18
2018-09-20T05:38:07.006Z,17.3
2018-09-20T05:38:48.035Z,17.28
2018-09-20T05:39:28.818Z,17.49
2018-09-20T05:40:15.110Z,17.55
2018-09-20T05:40:55.000Z,17.73
2018-09-20T05:41:35.560Z,17.8
2018-09-20T05:42:16.712Z,17.89
2018-09-20T05:42:56.844Z,18.05
2018-09-20T05:43:40.854Z,18.11
2018-09-20T05:44:37.261Z,18.25
2018-09-20T05:45:18.203Z,18.31
2018-09-20T05:45:58.396Z,18.35
2018-09-20T06:13:51.337Z,21.12
2018-09-20T06:14:32.246Z,21.31
2018-09-20T06:15:12.597Z,21.34
2018-09-20T06:15:53.006Z,21.33
2018-09-20T06:16:33.407Z,21.38
2018-09-20T06:17:13.853Z,21.43
2018-09-20T06:17:54.181Z,21.48
2018-09-20T06:18:34.608Z,21.55
2018-09-20T06:19:15.059Z,21.55
2018-09-20T06:19:55.453Z,21.67
2018-09-20T06:20:35.866Z,21.58
2018-09-20T06:21:16.386Z,21.74
2018-09-20T06:21:56.858Z,21.82
2018-09-20T06:22:37.212Z,21.89
2018-09-20T06:23:17.623Z,21.98
2018-09-20T06:23:58.076Z,22.08
2018-09-20T06:24:38.501Z,22.19
2018-09-20T06:25:19.050Z,22.33
2018-09-20T06:25:59.395Z,22.45
2018-09-20T06:26:39.874Z,22.51
2018-09-20T06:27:20.260Z,22.48
2018-09-20T06:28:00.676Z,22.39
2018-09-20T06:28:41.124Z,22.41
2018-09-20T06:29:21.466Z,22.42
2018-09-20T06:30:01.943Z,22.36
2018-09-20T06:30:42.399Z,22.44
2018-09-20T06:31:22.829Z,22.39
2018-09-20T06:32:03.280Z,22.39
2018-09-20T06:32:43.672Z,22.41
2018-09-20T06:33:24.094Z,22.51
2018-09-20T06:34:04.530Z,22.51
2018-09-20T06:34:45.003Z,22.64
2018-09-20T06:35:25.401Z,22.61
2018-09-20T06:36:06.152Z,22.67
2018-09-20T06:36:46.635Z,22.74
2018-09-20T06:37:26.959Z,22.78
2018-09-20T06:38:07.400Z,22.7
2018-09-20T06:38:47.771Z,22.7
2018-09-20T06:39:28.191Z,22.84
2018-09-20T06:40:08.710Z,22.66
2018-09-20T06:40:49.171Z,22.63
2018-09-20T06:41:30.471Z,22.57
2018-09-20T06:42:11.426Z,22.64
2018-09-20T06:42:51.196Z,22.59
2018-09-20T06:43:31.686Z,22.61
2018-09-20T06:44:12.065Z,22.51
2018-09-20T06:44:52.589Z,22.54
2018-09-20T06:45:33.049Z,22.46
2018-09-20T06:46:13.485Z,22.49
2018-09-20T06:46:53.936Z,22.45
2018-09-20T06:47:35.933Z,22.42
2018-09-20T06:48:15.574Z,22.31
2018-09-20T06:48:56.021Z,22.3
2018-09-20T06:49:36.457Z,22.21
2018-09-20T06:50:17.010Z,22.21
2018-09-20T06:50:57.593Z,22.14
2018-09-20T06:51:38.039Z,22.12
2018-09-20T06:52:18.597Z,22.05
2018-09-20T06:52:59.043Z,22.17
2018-09-20T06:53:40.945Z,22.06
2018-09-20T06:54:20.338Z,22.21
2018-09-20T06:55:00.825Z,22.15
2018-09-20T06:55:42.209Z,22.21
2018-09-20T06:56:21.940Z,22.15
2018-09-20T06:57:02.392Z,22.11
2018-09-20T06:57:42.886Z,22.23
2018-09-20T06:58:23.352Z,22.2
2018-09-20T06:59:03.761Z,22.24
2018-09-20T06:59:44.212Z,22.27
2018-09-20T07:00:24.638Z,22.17
2018-09-20T07:01:19.597Z,22.06
2018-09-20T07:03:12.150Z,22.15
2018-09-20T07:03:52.438Z,22.02
2018-09-20T07:04:32.838Z,21.93
2018-09-20T07:05:13.271Z,22.06
2018-09-20T07:05:53.844Z,22.06
2018-09-20T07:08:15.686Z,22.23
2018-09-20T07:08:56.081Z,22.24
2018-09-20T07:09:36.588Z,22.17
2018-09-20T07:10:16.955Z,22.09
2018-09-20T07:10:57.440Z,22.26
2018-09-20T07:11:37.858Z,22.24
2018-09-20T07:12:18.314Z,22.33
2018-09-20T07:12:58.750Z,22.38
2018-09-20T07:13:39.239Z,22.42
2018-09-20T07:14:19.577Z,22.41
2018-09-20T07:14:59.985Z,22.49
2018-09-20T07:15:40.394Z,22.54
2018-09-20T07:16:20.786Z,22.54
2018-09-20T07:17:01.393Z,22.6
2018-09-20T07:17:41.809Z,22.6
2018-09-20T07:18:22.243Z,22.6
2018-09-20T07:19:02.687Z,22.59
2018-09-20T07:19:43.169Z,22.51
2018-09-20T07:20:23.552Z,22.51
2018-09-20T07:21:03.922Z,22.52
2018-09-20T07:21:44.399Z,22.52
2018-09-20T07:22:24.793Z,22.52
2018-09-20T07:23:05.264Z,22.61
2018-09-20T07:23:45.669Z,22.63
2018-09-20T07:24:26.218Z,22.64
2018-09-20T07:25:06.678Z,22.66
2018-09-20T07:25:47.611Z,22.74
2018-09-20T07:26:27.987Z,22.84
2018-09-20T07:27:08.671Z,22.93
2018-09-20T07:27:49.029Z,22.91
2018-09-20T07:28:29.556Z,22.93
2018-09-20T07:29:10.007Z,23
2018-09-20T07:29:50.481Z,22.94
2018-09-20T07:30:31.105Z,22.97
2018-09-20T07:31:11.676Z,22.97
2018-09-20T07:31:52.145Z,22.91
2018-09-20T07:32:32.688Z,22.93
2018-09-20T07:33:13.078Z,22.75
2018-09-20T07:33:53.554Z,22.74
2018-09-20T07:34:33.947Z,22.72
2018-09-20T07:35:14.427Z,22.79
2018-09-20T07:35:54.815Z,22.67
2018-09-20T07:36:35.396Z,22.57
2018-09-20T07:37:15.700Z,22.46
2018-09-20T07:37:56.073Z,22.38
2018-09-20T07:38:36.659Z,22.21
2018-09-20T07:39:17.107Z,22.17
2018-09-20T07:39:57.435Z,22.09
2018-09-20T07:40:37.853Z,22.09
2018-09-20T07:41:18.282Z,22.09
2018-09-20T07:41:58.659Z,22.15
2018-09-20T07:42:39.178Z,22.14
2018-09-20T07:43:19.562Z,22.09
2018-09-20T07:44:00.040Z,22.09
2018-09-20T07:44:40.435Z,22.14
2018-09-20T07:45:20.943Z,22.11
2018-09-20T07:46:01.410Z,22.21
2018-09-20T07:46:41.836Z,22.29
2018-09-20T07:47:22.367Z,22.44
2018-09-20T07:48:02.817Z,22.51
2018-09-20T07:48:43.245Z,22.69
2018-09-20T07:49:23.678Z,22.7
2018-09-20T07:50:04.245Z,22.96
2018-09-20T07:50:44.714Z,23.04
2018-09-20T07:51:25.098Z,23.12
2018-09-20T07:52:05.693Z,23.32
2018-09-20T07:52:46.128Z,23.59
2018-09-20T07:53:26.542Z,23.72
2018-09-20T07:54:07.013Z,23.69
2018-09-20T07:55:55.768Z,23.97
2018-09-20T07:56:35.623Z,24.16
2018-09-20T07:57:16.081Z,24.36
2018-09-20T07:57:56.356Z,24.53
2018-09-20T07:58:36.820Z,24.67
2018-09-20T07:59:17.335Z,24.87
2018-09-20T07:59:58.789Z,25.11
2018-09-20T08:00:38.804Z,25.16
2018-09-20T08:01:20.163Z,25.23
2018-09-20T08:02:00.651Z,25.35
2018-09-20T08:02:41.215Z,25.59
2018-09-20T08:03:22.073Z,25.75
2018-09-20T08:04:03.320Z,26
2018-09-20T08:04:44.958Z,26.27
2018-09-20T08:05:25.761Z,26.51
2018-09-20T08:06:06.623Z,26.6
2018-09-20T08:06:47.422Z,26.64
2018-09-20T08:07:29.212Z,26.65
2018-09-20T08:08:09.146Z,26.69
2018-09-20T08:08:49.860Z,26.87
2018-09-20T08:09:31.086Z,27.02
2018-09-20T08:10:11.108Z,27.18
2018-09-20T08:10:51.898Z,27.33
2018-09-20T08:11:33.317Z,27.5
2018-09-20T08:12:13.786Z,27.66
2018-09-20T08:12:54.622Z,27.84
2018-09-20T08:13:36.089Z,27.81
2018-09-20T08:14:15.985Z,27.78
2018-09-20T08:14:57.603Z,27.91
2018-09-20T08:15:38.604Z,28.17
2018-09-20T08:16:20.242Z,28.28
2018-09-20T08:17:00.419Z,28.39
2018-09-20T08:17:41.306Z,28.58
2018-09-20T08:18:21.990Z,28.73
2018-09-20T08:19:02.688Z,28.91
2018-09-20T08:19:43.402Z,28.95
2018-09-20T08:20:25.626Z,29.21
2018-09-20T08:21:05.812Z,29.32
2018-09-20T08:21:47.113Z,29.35
2018-09-20T08:22:27.603Z,29.44
2018-09-20T08:23:08.600Z,29.48
2018-09-20T08:23:48.434Z,29.57
2018-09-20T08:24:30.325Z,29.58
2018-09-20T08:25:11.774Z,29.78
2018-09-20T08:25:52.179Z,29.64
2018-09-20T08:26:33.010Z,29.48
2018-09-20T08:27:14.425Z,29.32
2018-09-20T08:27:56.233Z,29.39
2018-09-20T08:28:36.094Z,29.44
2018-09-20T08:29:16.652Z,29.49
2018-09-20T08:29:57.468Z,29.54
2018-09-20T08:30:39.640Z,29.79
2018-09-20T08:31:20.442Z,29.91
2018-09-20T08:32:02.107Z,29.86
2018-09-20T08:32:42.228Z,29.84
2018-09-20T08:33:22.841Z,29.84
2018-09-20T08:34:03.617Z,29.91
2018-09-20T08:34:44.916Z,30.08
2018-09-20T08:35:24.664Z,30.23
2018-09-20T08:36:05.184Z,29.92
2018-09-20T08:36:45.556Z,29.67
2018-09-20T08:37:26.165Z,29.41
2018-09-20T08:38:07.302Z,29.1
2018-09-20T08:38:48.607Z,28.98
2018-09-20T08:39:30.303Z,28.97
2018-09-20T08:40:10.002Z,29.1
2018-09-20T08:40:50.554Z,29.14
2018-09-20T08:42:48.787Z,29.26
2018-09-20T08:43:30.500Z,29.12
2018-09-20T08:44:11.262Z,29.18
2018-09-20T08:44:51.546Z,28.98
2018-09-20T08:45:32.073Z,28.88
2018-09-20T08:46:12.554Z,28.95
2018-09-20T08:46:53.281Z,29.08
2018-09-20T08:47:33.969Z,29.07
2018-09-20T08:48:14.924Z,29.07
2018-09-20T08:48:55.610Z,29.08
2018-09-20T08:49:36.118Z,29.17
2018-09-20T08:50:16.755Z,29.29
2018-09-20T08:50:58.092Z,29.54
2018-09-20T08:51:38.537Z,29.85
2018-09-20T08:52:18.979Z,30.04
2018-09-20T08:52:59.959Z,30.16
2018-09-20T08:53:40.495Z,30.18
2018-09-20T08:54:20.976Z,30.26
2018-09-20T08:55:02.263Z,30.29
2018-09-20T08:55:42.201Z,30.28
2018-09-20T08:56:23.129Z,30.34
2018-09-20T08:57:03.691Z,30.28
2018-09-20T08:57:44.180Z,30.46
2018-09-20T08:58:24.931Z,30.49
2018-09-20T08:59:05.086Z,30.53
2018-09-20T08:59:45.546Z,30.66
2018-09-20T09:00:26.193Z,30.68
2018-09-20T09:01:21.654Z,30.82
2018-09-20T09:02:21.256Z,30.82
2018-09-20T09:04:10.113Z,30.64
2018-09-20T09:04:50.511Z,30.66
2018-09-20T09:05:31.009Z,30.6
2018-09-20T09:06:11.459Z,30.56
2018-09-20T09:06:53.671Z,30.36
2018-09-20T09:07:34.355Z,30.07
2018-09-20T09:08:14.845Z,29.94
2018-09-20T09:08:55.330Z,29.86
2018-09-20T09:09:36.121Z,29.82
2018-09-20T09:10:17.444Z,29.84
2018-09-20T09:10:57.188Z,29.81
2018-09-20T09:11:37.609Z,29.94
2018-09-20T09:12:18.903Z,30
2018-09-20T09:12:59.627Z,30
2018-09-20T09:13:40.126Z,30.04
2018-09-20T09:14:22.046Z,30.11
2018-09-20T09:15:02.112Z,30.16
2018-09-20T09:41:45.699Z,31.42
2018-09-20T09:42:28.148Z,31.3
2018-09-20T09:43:07.835Z,31.28
2018-09-20T09:43:50.263Z,31.27
2018-09-20T09:44:30.911Z,31.01
2018-09-20T09:45:12.084Z,30.75
2018-09-20T09:45:53.156Z,30.7
2018-09-20T09:46:33.740Z,30.64
2018-09-20T09:47:14.765Z,30.51
2018-09-20T09:47:58.567Z,30.56
2018-09-20T09:48:39.517Z,30.73
2018-09-20T09:49:20.157Z,30.96
2018-09-20T09:50:01.170Z,31.18
2018-09-20T09:50:41.396Z,31.35
2018-09-20T09:51:22.703Z,31.53
2018-09-20T09:52:06.113Z,31.67
2018-09-20T09:52:46.699Z,31.79
2018-09-20T09:53:28.216Z,31.74
2018-09-20T09:54:08.639Z,31.87
2018-09-20T09:54:50.218Z,31.95
2018-09-20T09:55:38.070Z,31.99
2018-09-20T09:56:18.570Z,31.97
2018-09-20T09:56:59.055Z,32.12
2018-09-20T09:57:40.924Z,32.25
2018-09-20T09:58:25.254Z,32.4
2018-09-20T09:59:06.111Z,32.43
2018-09-20T09:59:46.770Z,32.25
2018-09-20T10:00:27.962Z,32.29
2018-09-20T10:01:08.590Z,32.44
2018-09-20T10:01:50.695Z,32.51
2018-09-20T10:02:31.704Z,32.66
2018-09-20T10:03:11.936Z,32.73
2018-09-20T10:03:52.594Z,32.83
2018-09-20T10:04:33.263Z,32.81
2018-09-20T10:05:14.696Z,32.84
2018-09-20T10:05:55.328Z,32.85
2018-09-20T10:06:35.876Z,33.05
2018-09-20T10:07:16.841Z,33
2018-09-20T10:07:57.279Z,33.05
2018-09-20T10:08:37.698Z,33.14
2018-09-20T10:09:18.168Z,33.12
2018-09-20T10:09:58.582Z,33.05
2018-09-20T10:10:39.081Z,33.11
2018-09-20T10:11:19.489Z,33.12
2018-09-20T10:12:00.507Z,33.03
2018-09-20T10:12:42.224Z,33.12
2018-09-20T10:13:23.777Z,33.2
2018-09-20T10:14:06.663Z,33.28
2018-09-20T10:14:47.096Z,33.31
2018-09-20T10:15:27.938Z,33.4
2018-09-20T10:16:08.557Z,33.49
2018-09-20T10:16:49.562Z,33.63
2018-09-20T10:17:30.311Z,33.74
2018-09-20T10:18:11.300Z,33.94
2018-09-20T10:18:52.581Z,34.12
2018-09-20T10:19:33.656Z,34.09
2018-09-20T10:20:14.209Z,34.11
2018-09-20T10:20:55.643Z,34.18
2018-09-20T10:21:35.813Z,33.96
2018-09-20T10:22:17.979Z,33.78
2018-09-20T10:22:59.085Z,33.47
2018-09-20T10:23:42.660Z,33.45
2018-09-20T10:24:23.355Z,33.44
2018-09-20T10:25:03.338Z,33.41
2018-09-20T10:25:44.327Z,33.52
2018-09-20T10:26:25.163Z,33.53
2018-09-20T10:27:07.069Z,33.55
2018-09-20T10:27:48.332Z,33.4
2018-09-20T10:28:29.094Z,33.31
2018-09-20T11:11:03.449Z,33.47
2018-09-20T11:12:04.347Z,33.56
2018-09-20T11:12:59.881Z,33.97
2018-09-20T11:13:56.658Z,33.96
2018-09-20T11:15:00.849Z,33.74
2018-09-20T11:16:01.397Z,33.41
2018-09-20T11:16:58.199Z,33
2018-09-20T11:18:05.330Z,32.88
2018-09-20T11:19:05.243Z,32.65
2018-09-20T11:23:36.937Z,32.36
2018-09-20T11:24:32.513Z,32.46
2018-09-20T11:38:39.493Z,32.61
2018-09-20T11:45:26.714Z,34.12
2018-09-20T11:50:00.345Z,34.08
2018-09-20T11:51:01.695Z,33.77
2018-09-20T11:52:03.802Z,33.82
2018-09-20T11:53:03.469Z,34.08
2018-09-20T11:54:58.991Z,33.96
2018-09-20T11:55:39.632Z,33.86
2018-09-20T11:56:20.142Z,34.05
2018-09-20T11:57:00.599Z,34.12
2018-09-20T11:57:41.027Z,34.23
2018-09-20T11:58:22.130Z,34.28
2018-09-20T11:59:02.887Z,34.21
2018-09-20T11:59:43.415Z,34.31
2018-09-20T12:00:24.581Z,34.42
2018-09-20T12:01:05.074Z,34.46
2018-09-20T12:01:46.001Z,34.49
2018-09-20T12:02:27.021Z,34.53
2018-09-20T12:03:09.202Z,34.55
2018-09-20T12:03:48.970Z,34.71
2018-09-20T12:04:30.191Z,34.73
2018-09-20T12:05:10.621Z,34.76
2018-09-20T12:05:51.088Z,34.43
2018-09-20T12:07:53.747Z,34.6
2018-09-20T12:08:34.653Z,34.6
2018-09-20T12:09:15.424Z,34.5
2018-09-20T12:09:56.175Z,34.48